createdAt,value
2023-01-19T00:00:20.778Z,96170.66
2023-01-19T00:04:23.427Z,96185.41
2023-01-19T00:08:26.043Z,96179.63
2023-01-19T00:12:30.094Z,96182.78
2023-01-19T00:16:32.853Z,96193.78
2023-01-19T00:20:36.328Z,96197.16
2023-01-19T00:24:38.962Z,96201.16
2023-01-19T00:28:43.112Z,96216.22
2023-01-19T00:32:45.730Z,96211.94
2023-01-19T00:36:48.379Z,96212.00
2023-01-19T00:40:51.139Z,96212.97
2023-01-19T00:44:55.891Z,96215.16
2023-01-19T00:48:58.518Z,96229.91
2023-01-19T00:53:02.352Z,96230.59
2023-01-19T00:57:05.191Z,96240.38
2023-01-19T01:01:09.205Z,96248.50
2023-01-19T01:05:13.153Z,96263.28
2023-01-19T01:09:15.859Z,96267.88
2023-01-19T01:13:20.846Z,96278.16
2023-01-19T01:17:27.776Z,96289.63
2023-01-19T01:21:30.619Z,96283.00
2023-01-19T01:25:37.379Z,96276.03
2023-01-19T01:29:41.262Z,96281.00
2023-01-19T01:33:45.217Z,96288.97
2023-01-19T01:37:47.807Z,96289.97
2023-01-19T01:41:50.510Z,96304.06
2023-01-19T01:45:56.517Z,96306.88
2023-01-19T01:50:08.132Z,96301.13
2023-01-19T01:54:16.582Z,96311.22
2023-01-19T01:58:19.257Z,96304.72
2023-01-19T02:02:42.299Z,96310.19
2023-01-19T02:07:05.264Z,96306.88
2023-01-19T02:11:25.929Z,96308.56
2023-01-19T02:15:28.555Z,96315.34
2023-01-19T02:19:38.228Z,96322.31
2023-01-19T02:23:45.244Z,96317.16
2023-01-19T02:27:48.993Z,96318.84
2023-01-19T02:31:52.332Z,96321.13
2023-01-19T02:35:57.691Z,96324.59
2023-01-19T02:40:03.797Z,96330.25
2023-01-19T02:44:09.626Z,96334.69
2023-01-19T02:48:12.270Z,96340.81
2023-01-19T02:52:17.824Z,96334.22
2023-01-19T02:56:40.125Z,96342.34
2023-01-19T03:00:51.177Z,96341.69
2023-01-19T03:05:01.042Z,96333.72
2023-01-19T03:09:12.409Z,96340.34
2023-01-19T03:13:27.283Z,96336.38
2023-01-19T03:17:33.039Z,96332.91
2023-01-19T03:21:38.333Z,96334.06
2023-01-19T03:25:44.246Z,96335.41
2023-01-19T03:29:53.210Z,96333.91
2023-01-19T03:33:59.366Z,96335.91
2023-01-19T03:38:08.642Z,96335.09
2023-01-19T03:42:14.582Z,96336.28
2023-01-19T03:46:20.255Z,96343.06
2023-01-19T03:50:27.320Z,96332.59
2023-01-19T03:54:29.886Z,96334.09
2023-01-19T03:58:32.495Z,96337.59
2023-01-19T04:02:36.457Z,96329.97
2023-01-19T04:06:39.117Z,96342.22
2023-01-19T04:10:41.756Z,96333.63
2023-01-19T04:14:44.384Z,96343.94
2023-01-19T04:18:48.565Z,96337.78
2023-01-19T04:22:51.188Z,96339.13
2023-01-19T04:26:54.282Z,96346.25
2023-01-19T04:30:57.101Z,96337.50
2023-01-19T04:35:01.102Z,96331.03
2023-01-19T04:39:04.993Z,96324.59
2023-01-19T04:43:08.237Z,96322.59
2023-01-19T04:47:11.386Z,96315.81
2023-01-19T04:51:15.340Z,96312.19
2023-01-19T04:55:18.435Z,96327.59
2023-01-19T04:59:21.515Z,96330.25
2023-01-19T05:03:25.744Z,96327.25
2023-01-19T05:07:30.848Z,96329.56
2023-01-19T05:11:33.451Z,96338.66
2023-01-19T05:15:36.121Z,96346.47
2023-01-19T05:19:39.167Z,96351.41
2023-01-19T05:23:43.228Z,96350.91
2023-01-19T05:27:46.073Z,96364.00
2023-01-19T05:31:48.800Z,96360.53
2023-01-19T05:35:51.899Z,96360.81
2023-01-19T05:39:55.876Z,96358.16
2023-01-19T05:43:58.556Z,96359.03
2023-01-19T05:48:01.207Z,96365.16
2023-01-19T05:52:03.841Z,96363.13
2023-01-19T05:56:09.841Z,96378.75
2023-01-19T06:00:13.757Z,96370.59
2023-01-19T06:04:16.342Z,96386.34
2023-01-19T06:08:18.923Z,96385.06
2023-01-19T06:12:22.955Z,96392.72
2023-01-19T06:16:25.703Z,96405.31
2023-01-19T06:20:28.367Z,96406.25
2023-01-19T06:24:31.040Z,96418.63
2023-01-19T06:28:35.173Z,96429.47
2023-01-19T06:32:38.402Z,96428.66
2023-01-19T06:36:41.226Z,96434.94
2023-01-19T06:40:44.211Z,96443.41
2023-01-19T06:44:48.226Z,96454.31
2023-01-19T06:48:50.999Z,96457.09
2023-01-19T06:52:54.202Z,96461.53
2023-01-19T06:56:56.862Z,96459.00
2023-01-19T07:01:03.596Z,96473.53
2023-01-19T07:05:09.351Z,96476.69
2023-01-19T07:09:14.218Z,96493.91
2023-01-19T07:13:18.221Z,96502.53
2023-01-19T07:17:22.318Z,96502.53
2023-01-19T07:21:25.249Z,96507.66
2023-01-19T07:25:27.997Z,96502.38
2023-01-19T07:29:30.580Z,96510.19
2023-01-19T07:33:34.542Z,96505.41
2023-01-19T07:37:37.611Z,96514.63
2023-01-19T07:41:40.242Z,96518.97
2023-01-19T07:45:43.911Z,96522.47
2023-01-19T07:49:47.925Z,96511.03
2023-01-19T07:53:51.700Z,96517.97
2023-01-19T07:57:54.339Z,96525.72
2023-01-19T08:01:59.224Z,96531.03
2023-01-19T08:06:05.281Z,96541.56
2023-01-19T08:10:08.924Z,96544.75
2023-01-19T08:14:11.773Z,96539.25
2023-01-19T08:18:15.632Z,96542.13
2023-01-19T08:22:19.590Z,96552.34
2023-01-19T08:26:27.446Z,96559.25
2023-01-19T08:30:30.412Z,96555.28
2023-01-19T08:34:33.521Z,96549.56
2023-01-19T08:38:39.483Z,96551.56
2023-01-19T08:42:42.129Z,96559.97
2023-01-19T08:46:44.922Z,96552.50
2023-01-19T08:50:48.007Z,96557.53
2023-01-19T08:54:52.238Z,96547.47
2023-01-19T08:59:08.231Z,96553.28
2023-01-19T09:03:13.959Z,96564.25
2023-01-19T09:07:17.545Z,96568.41
2023-01-19T09:11:22.187Z,96564.13
2023-01-19T09:15:25.159Z,96564.94
2023-01-19T09:19:28.076Z,96581.88
2023-01-19T09:23:31.410Z,96571.63
2023-01-19T09:27:35.839Z,96580.25
2023-01-19T09:31:40.233Z,96581.06
2023-01-19T09:35:44.383Z,96587.84
2023-01-19T09:39:47.076Z,96588.69
2023-01-19T09:43:55.814Z,96591.13
2023-01-19T09:48:01.221Z,96590.81
2023-01-19T09:52:04.775Z,96578.22
2023-01-19T09:56:13.785Z,96590.34
2023-01-19T10:00:19.131Z,96589.84
2023-01-19T10:04:31.005Z,96593.00
2023-01-19T10:08:42.862Z,96585.38
2023-01-19T10:12:54.485Z,96587.19
2023-01-19T10:17:05.599Z,96589.66
2023-01-19T10:21:15.481Z,96579.97
2023-01-19T10:25:23.762Z,96567.56
2023-01-19T10:29:34.466Z,96581.97
2023-01-19T10:33:39.652Z,96571.06
2023-01-19T10:37:44.781Z,96568.56
2023-01-19T10:41:52.390Z,96560.06
2023-01-19T10:45:55.124Z,96565.88
2023-01-19T10:49:59.195Z,96564.97
2023-01-19T10:54:03.579Z,96564.72
2023-01-19T10:58:08.099Z,96559.66
2023-01-19T11:02:18.533Z,96557.78
2023-01-19T11:06:32.821Z,96560.13
2023-01-19T11:10:35.769Z,96559.22
2023-01-19T11:14:39.715Z,96546.97
2023-01-19T11:18:44.237Z,96550.38
2023-01-19T11:22:49.055Z,96540.25
2023-01-19T11:27:03.687Z,96535.50
2023-01-19T11:31:19.109Z,96528.53
2023-01-19T11:35:35.314Z,96532.34
2023-01-19T11:39:49.336Z,96545.75
2023-01-19T11:43:55.539Z,96523.78
2023-01-19T11:47:58.291Z,96524.03
2023-01-19T11:52:05.379Z,96526.41
2023-01-19T11:56:11.976Z,96525.19
2023-01-19T12:00:23.764Z,96521.41
2023-01-19T12:04:29.532Z,96515.03
2023-01-19T12:08:37.270Z,96514.69
2023-01-19T12:12:42.513Z,96513.22
2023-01-19T12:16:46.220Z,96525.88
2023-01-19T12:20:52.391Z,96513.41
2023-01-19T12:25:01.863Z,96512.63
2023-01-19T12:29:12.596Z,96510.72
2023-01-19T12:33:22.825Z,96509.75
2023-01-19T12:37:41.667Z,96499.94
2023-01-19T12:41:45.877Z,96502.09
2023-01-19T12:45:49.943Z,96492.63
2023-01-19T12:49:57.059Z,96497.31
2023-01-19T12:54:00.527Z,96497.41
2023-01-19T12:58:06.513Z,96503.00
2023-01-19T13:02:42.158Z,96502.91
2023-01-19T13:07:10.340Z,96502.84
2023-01-19T13:11:19.576Z,96504.88
2023-01-19T13:15:34.547Z,96499.69
2023-01-19T13:19:48.758Z,96495.53
2023-01-19T13:23:56.820Z,96489.97
2023-01-19T13:28:00.063Z,96497.84
2023-01-19T13:32:05.344Z,96491.69
2023-01-19T13:36:20.494Z,96497.59
2023-01-19T13:40:25.494Z,96503.78
2023-01-19T13:44:31.101Z,96498.16
2023-01-19T13:48:33.966Z,96495.66
2023-01-19T13:52:37.985Z,96515.16
2023-01-19T13:56:42.630Z,96515.03
2023-01-19T14:00:46.808Z,96518.25
2023-01-19T14:04:49.542Z,96523.31
2023-01-19T14:13:21.438Z,96516.34
2023-01-19T14:17:26.654Z,96523.84
2023-01-19T14:21:39.111Z,96527.50
2023-01-19T14:25:45.805Z,96521.19
2023-01-19T14:29:53.580Z,96515.72
2023-01-19T14:33:58.575Z,96516.53
2023-01-19T14:38:01.217Z,96527.59
2023-01-19T14:42:07.699Z,96533.03
2023-01-19T14:46:18.411Z,96519.28
2023-01-19T14:50:24.822Z,96522.75
2023-01-19T14:54:33.981Z,96524.47
2023-01-19T14:58:36.839Z,96523.50
2023-01-19T15:02:40.877Z,96530.16
2023-01-19T15:06:45.824Z,96530.72
2023-01-19T15:10:48.791Z,96540.84
2023-01-19T15:14:51.504Z,96525.59
2023-01-19T15:18:55.976Z,96531.94
2023-01-19T15:22:58.622Z,96529.38
2023-01-19T15:27:02.562Z,96538.94
2023-01-19T15:31:05.387Z,96522.66
2023-01-19T15:35:15.897Z,96530.47
2023-01-19T15:39:18.717Z,96537.28
2023-01-19T15:43:22.041Z,96543.59
2023-01-19T15:47:24.665Z,96551.16
2023-01-19T15:51:29.069Z,96552.28
2023-01-19T15:55:31.776Z,96547.72
2023-01-19T15:59:34.406Z,96543.84
2023-01-19T16:03:38.679Z,96549.47
2023-01-19T16:07:42.637Z,96557.13
2023-01-19T16:11:45.713Z,96551.88
2023-01-19T16:15:48.502Z,96555.75
2023-01-19T16:19:51.156Z,96571.09
2023-01-19T16:23:55.333Z,96565.13
2023-01-19T16:27:58.249Z,96560.66
2023-01-19T16:32:00.914Z,96570.16
2023-01-19T16:36:20.043Z,96569.50
2023-01-19T16:40:24.033Z,96575.81
2023-01-19T16:44:26.829Z,96572.66
2023-01-19T16:48:32.924Z,96582.81
2023-01-19T16:52:35.542Z,96583.66
2023-01-19T16:56:39.521Z,96587.94
2023-01-19T17:00:42.143Z,96579.50
2023-01-19T17:04:44.757Z,96579.50
2023-01-19T17:08:47.777Z,96584.81
2023-01-19T17:12:51.695Z,96587.66
2023-01-19T17:16:54.453Z,96583.50
2023-01-19T17:21:02.111Z,96585.47
2023-01-19T17:25:05.185Z,96587.47
2023-01-19T17:29:10.810Z,96597.28
2023-01-19T17:33:13.432Z,96591.81
2023-01-19T17:37:16.110Z,96598.97
2023-01-19T17:41:20.896Z,96591.16
2023-01-19T17:45:24.907Z,96592.31
2023-01-19T17:49:27.727Z,96599.78
2023-01-19T17:53:30.369Z,96603.41
2023-01-19T17:57:33.232Z,96604.06
2023-01-19T18:01:40.352Z,96603.91
2023-01-19T18:05:43.147Z,96613.72
2023-01-19T18:09:45.793Z,96615.03
2023-01-19T18:13:49.835Z,96604.44
2023-01-19T18:17:53.808Z,96607.47
2023-01-19T18:21:56.673Z,96606.53
2023-01-19T18:26:00.250Z,96594.69
2023-01-19T18:30:02.859Z,96601.69
2023-01-19T18:34:06.833Z,96608.06
2023-01-19T18:38:09.500Z,96612.84
2023-01-19T18:42:12.139Z,96618.19
2023-01-19T18:46:15.828Z,96611.41
2023-01-19T18:50:20.073Z,96608.38
2023-01-19T18:54:22.733Z,96620.34
2023-01-19T18:58:28.515Z,96614.72
2023-01-19T19:02:31.284Z,96611.72
2023-01-19T19:06:35.906Z,96608.41
2023-01-19T19:10:40.846Z,96617.72
2023-01-19T19:14:43.521Z,96610.94
2023-01-19T19:18:49.931Z,96615.22
2023-01-19T19:22:55.277Z,96618.25
2023-01-19T19:26:57.886Z,96621.06
2023-01-19T19:31:05.789Z,96620.22
2023-01-19T19:35:09.126Z,96612.75
2023-01-19T19:39:13.113Z,96621.72
2023-01-19T19:43:15.824Z,96620.22
2023-01-19T19:47:18.426Z,96617.91
2023-01-19T19:51:23.514Z,96625.38
2023-01-19T19:55:27.621Z,96622.56
2023-01-19T19:59:30.367Z,96628.19
2023-01-19T20:03:33.023Z,96627.69
2023-01-19T20:07:35.691Z,96634.53
2023-01-19T20:11:40.312Z,96635.34
2023-01-19T20:15:42.967Z,96632.69
2023-01-19T20:19:47.556Z,96637.19
2023-01-19T20:23:52.943Z,96649.44
2023-01-19T20:27:59.152Z,96636.84
2023-01-19T20:32:01.929Z,96641.66
2023-01-19T20:36:04.878Z,96640.97
2023-01-19T20:40:07.877Z,96648.28
2023-01-19T20:44:12.526Z,96647.47
2023-01-19T20:48:15.194Z,96653.44
2023-01-19T20:52:17.806Z,96649.97
2023-01-19T20:56:20.503Z,96650.28
2023-01-19T21:00:25.074Z,96644.97
2023-01-19T21:04:27.759Z,96655.13
2023-01-19T21:08:30.428Z,96642.97
2023-01-19T21:12:33.198Z,96650.94
2023-01-19T21:16:37.906Z,96651.78
2023-01-19T21:20:40.556Z,96653.28
2023-01-19T21:24:44.491Z,96654.47
2023-01-19T21:28:47.247Z,96659.56
2023-01-19T21:32:51.243Z,96651.78
2023-01-19T21:36:53.946Z,96660.25
2023-01-19T21:40:57.963Z,96654.25
2023-01-19T21:45:00.607Z,96657.94
2023-01-19T21:49:07.693Z,96651.97
2023-01-19T21:53:11.349Z,96643.31
2023-01-19T21:57:15.213Z,96655.59
2023-01-19T22:01:17.972Z,96648.28
2023-01-19T22:05:21.999Z,96661.72
2023-01-19T22:09:24.635Z,96652.59
2023-01-19T22:13:27.250Z,96655.25
2023-01-19T22:17:29.852Z,96655.25
2023-01-19T22:21:36.055Z,96661.38
2023-01-19T22:25:38.689Z,96655.75
2023-01-19T22:29:41.337Z,96651.09
2023-01-19T22:33:45.186Z,96650.25
2023-01-19T22:37:49.241Z,96657.75
2023-01-19T22:41:51.914Z,96660.91
2023-01-19T22:45:55.863Z,96667.72
2023-01-19T22:49:58.540Z,96665.41
2023-01-19T22:54:02.725Z,96663.56
2023-01-19T22:58:05.340Z,96667.03
2023-01-19T23:02:09.231Z,96676.34
2023-01-19T23:06:13.811Z,96687.63
2023-01-19T23:10:18.179Z,96684.81
2023-01-19T23:14:22.401Z,96685.63
2023-01-19T23:18:25.134Z,96686.81
2023-01-19T23:22:27.732Z,96691.78
2023-01-19T23:26:37.915Z,96696.09
2023-01-19T23:30:40.780Z,96692.44
2023-01-19T23:34:43.474Z,96690.78
2023-01-19T23:38:49.891Z,96692.63
2023-01-19T23:42:55.867Z,96698.25
2023-01-19T23:46:58.509Z,96688.09
2023-01-19T23:51:05.784Z,96686.13
2023-01-19T23:55:09.435Z,96693.75
2023-01-19T23:59:15.920Z,96690.78
